Time;durP1;ratioP1;P1;durP2;ratioP2;P2;SDS_P1;SDS_P2;PMS_P1;PMS_P2;Temp;Humidity;BMP_temperature;BMP_pressure;BME280_temperature;BME280_humidity;BME280_pressure;Samples;Min_cycle;Max_cycle;Signal;HPM_P1;HPM_P2
2023/09/22 00:00:00;;;;;;;0.80;0.80;;;;;;;20.87;62.44;99565.59;5035227;27;97896;-52
2023/09/22 00:02:26;;;;;;;3.17;1.07;;;;;;;20.84;62.43;99575.16;5035864;27;98465;-52
2023/09/22 00:04:52;;;;;;;2.00;1.20;;;;;;;20.83;62.54;99568.09;5032575;27;97099;-52
2023/09/22 00:07:17;;;;;;;1.43;1.00;;;;;;;20.82;62.51;99571.47;5037584;27;98576;-52
2023/09/22 00:09:43;;;;;;;1.63;1.17;;;;;;;20.80;62.35;99560.88;5033731;27;97101;-52
2023/09/22 00:12:08;;;;;;;1.70;1.07;;;;;;;20.76;62.49;99563.38;5035884;27;97322;-54
2023/09/22 00:14:35;;;;;;;1.20;1.07;;;;;;;20.73;62.33;99561.03;5035492;27;97138;-53
2023/09/22 00:17:00;;;;;;;1.90;1.10;;;;;;;20.67;62.65;99555.75;5035120;27;97116;-52
2023/09/22 00:19:26;;;;;;;1.30;1.17;;;;;;;20.66;62.71;99561.94;5035491;27;96752;-54
2023/09/22 00:21:51;;;;;;;0.90;0.90;;;;;;;20.64;62.72;99562.50;5036762;27;103848;-53
2023/09/22 00:24:16;;;;;;;1.20;1.10;;;;;;;20.62;62.55;99567.22;5035128;27;97008;-53
2023/09/22 00:26:42;;;;;;;1.30;1.20;;;;;;;20.57;62.79;99573.84;5036894;27;96912;-53
2023/09/22 00:29:07;;;;;;;1.30;1.10;;;;;;;20.55;62.91;99585.59;5034071;27;110645;-53
2023/09/22 00:31:32;;;;;;;1.93;1.07;;;;;;;20.53;62.83;99577.06;5031319;27;109099;-53
2023/09/22 00:33:57;;;;;;;1.80;0.93;;;;;;;20.55;62.92;99579.28;5034852;27;97518;-53
2023/09/22 00:36:25;;;;;;;1.20;1.10;;;;;;;20.55;62.80;99577.19;5034163;27;97293;-54
2023/09/22 00:38:51;;;;;;;1.47;1.37;;;;;;;20.54;62.78;99581.34;5034726;27;96864;-54
2023/09/22 00:41:16;;;;;;;1.00;0.80;;;;;;;20.52;62.96;99583.97;5032194;27;97445;-53
2023/09/22 00:43:41;;;;;;;1.33;1.23;;;;;;;20.51;62.87;99593.69;5036078;27;97132;-54
2023/09/22 00:46:07;;;;;;;3.00;1.70;;;;;;;20.48;62.73;99597.66;5036419;27;97056;-53
2023/09/22 00:48:35;;;;;;;1.33;1.00;;;;;;;20.45;62.95;99598.81;5035730;27;97340;-53
2023/09/22 00:51:01;;;;;;;1.13;1.03;;;;;;;20.44;62.78;99591.03;5033391;27;97190;-54
2023/09/22 00:53:29;;;;;;;1.20;1.10;;;;;;;20.41;62.76;99601.31;5033581;27;96690;-53
2023/09/22 00:55:56;;;;;;;1.63;1.20;;;;;;;20.39;62.86;99606.75;5032568;27;97021;-53
2023/09/22 00:58:22;;;;;;;1.97;1.60;;;;;;;20.37;62.69;99589.09;5033774;27;97272;-53
2023/09/22 01:00:48;;;;;;;1.50;1.40;;;;;;;20.33;62.70;99586.75;5034830;27;97721;-53
2023/09/22 01:03:14;;;;;;;1.07;0.97;;;;;;;20.32;62.85;99593.66;5034169;27;97248;-54
2023/09/22 01:05:40;;;;;;;1.20;1.10;;;;;;;20.30;62.94;99582.34;5037908;27;96912;-54
2023/09/22 01:08:05;;;;;;;1.43;1.33;;;;;;;20.28;62.73;99595.41;5034576;27;96970;-53
2023/09/22 01:10:36;;;;;;;1.00;1.00;;;;;;;20.27;62.85;99611.44;5035374;27;109464;-53
2023/09/22 01:13:01;;;;;;;1.10;1.00;;;;;;;20.25;62.89;99608.50;5032778;27;97517;-53
2023/09/22 01:15:27;;;;;;;1.70;1.33;;;;;;;20.25;62.94;99618.94;5039368;27;96890;-53
2023/09/22 01:17:52;;;;;;;2.53;1.20;;;;;;;20.24;62.73;99631.44;5031777;27;97677;-53
2023/09/22 01:20:17;;;;;;;1.13;1.03;;;;;;;20.22;62.59;99626.44;5032784;27;97942;-54
2023/09/22 01:22:43;;;;;;;1.47;1.37;;;;;;;20.19;62.67;99622.72;5034148;27;97108;-53
2023/09/22 01:25:09;;;;;;;1.27;1.17;;;;;;;20.18;62.88;99623.31;5033116;27;97065;-52
2023/09/22 01:27:34;;;;;;;1.43;1.33;;;;;;;20.15;62.67;99616.84;5034471;27;97239;-53
2023/09/22 01:29:59;;;;;;;1.40;1.30;;;;;;;20.16;62.67;99626.66;5034147;27;97613;-53
2023/09/22 01:32:25;;;;;;;2.30;1.30;;;;;;;20.16;62.73;99646.22;5031325;27;99265;-53
2023/09/22 01:34:50;;;;;;;1.87;1.40;;;;;;;20.14;62.85;99651.66;5034718;27;97629;-53
2023/09/22 01:37:15;;;;;;;1.37;1.20;;;;;;;20.14;62.90;99645.31;5034595;27;97317;-53
2023/09/22 01:39:41;;;;;;;1.40;1.30;;;;;;;20.12;62.74;99639.59;5032018;27;97010;-53
2023/09/22 01:42:08;;;;;;;3.97;1.40;;;;;;;20.12;62.68;99636.81;5032659;27;96633;-53
2023/09/22 01:44:33;;;;;;;1.10;1.00;;;;;;;20.10;62.68;99628.28;5032804;27;97038;-53
2023/09/22 01:46:58;;;;;;;1.03;1.00;;;;;;;20.09;62.90;99633.09;5034348;27;97678;-53
2023/09/22 01:49:24;;;;;;;1.20;1.10;;;;;;;20.06;62.57;99631.50;5032493;27;100206;-53
2023/09/22 01:51:49;;;;;;;1.10;1.10;;;;;;;20.02;62.71;99631.19;5034381;27;101091;-53
2023/09/22 01:54:15;;;;;;;1.43;1.33;;;;;;;19.99;62.81;99623.22;5038213;27;97145;-53
2023/09/22 01:56:40;;;;;;;1.10;1.00;;;;;;;19.96;62.82;99625.13;5037321;27;96821;-53
2023/09/22 01:59:07;;;;;;;1.17;1.03;;;;;;;19.93;62.95;99633.94;5036945;27;105850;-53
2023/09/22 02:01:33;;;;;;;1.23;1.13;;;;;;;19.90;62.99;99638.63;5035910;27;97016;-53
2023/09/22 02:03:58;;;;;;;1.00;0.90;;;;;;;19.89;62.84;99639.22;5038656;27;97353;-53
2023/09/22 02:06:23;;;;;;;1.30;1.20;;;;;;;19.87;63.04;99641.88;5037050;27;104714;-53
2023/09/22 02:08:48;;;;;;;1.87;1.27;;;;;;;19.87;63.07;99647.44;5036088;27;96704;-53
2023/09/22 02:11:14;;;;;;;1.87;1.17;;;;;;;19.86;63.15;99651.53;5036178;27;97069;-53
2023/09/22 02:13:40;;;;;;;1.23;1.13;;;;;;;19.83;63.03;99647.84;5036517;27;97261;-53
2023/09/22 02:16:05;;;;;;;1.10;0.90;;;;;;;19.82;63.12;99665.19;5037155;27;97323;-54
2023/09/22 02:18:31;;;;;;;1.03;0.93;;;;;;;19.80;62.97;99676.19;5036515;27;102025;-53
2023/09/22 02:20:56;;;;;;;1.37;1.23;;;;;;;19.77;63.10;99678.09;5038176;27;97143;-53
2023/09/22 02:23:24;;;;;;;1.30;1.00;;;;;;;19.77;62.83;99672.50;5036224;27;96941;-53
2023/09/22 02:25:49;;;;;;;1.40;1.00;;;;;;;19.74;62.83;99668.09;5037065;27;96668;-53
2023/09/22 02:28:14;;;;;;;1.03;1.03;;;;;;;19.72;62.89;99664.41;5035432;27;103785;-53
2023/09/22 02:30:40;;;;;;;1.50;1.40;;;;;;;19.68;62.93;99683.63;5035645;27;97758;-53
2023/09/22 02:33:05;;;;;;;1.00;1.00;;;;;;;19.65;62.82;99682.75;5037218;27;96738;-53
2023/09/22 02:35:30;;;;;;;0.80;0.73;;;;;;;19.61;62.77;99678.91;5036499;27;98537;-53
2023/09/22 02:37:56;;;;;;;1.50;0.80;;;;;;;19.59;63.00;99679.47;5036048;27;97731;-53
2023/09/22 02:40:21;;;;;;;1.20;1.10;;;;;;;19.57;63.12;99681.38;5036123;27;97259;-53
2023/09/22 02:42:47;;;;;;;1.30;1.27;;;;;;;19.55;63.13;99684.72;5035630;27;96834;-53
2023/09/22 02:45:13;;;;;;;1.70;0.93;;;;;;;19.52;63.00;99685.91;5037782;27;97110;-53
2023/09/22 02:47:40;;;;;;;1.00;1.00;;;;;;;19.52;63.03;99693.53;5037891;27;101026;-53
2023/09/22 02:50:08;;;;;;;1.40;1.17;;;;;;;19.50;62.94;99693.34;5036473;27;96821;-53
2023/09/22 02:52:33;;;;;;;1.20;1.00;;;;;;;19.48;63.12;99696.00;5034558;27;97329;-53
2023/09/22 02:54:58;;;;;;;1.30;1.20;;;;;;;19.46;63.34;99693.03;5033886;27;97447;-53
2023/09/22 02:57:24;;;;;;;1.10;1.00;;;;;;;19.43;63.17;99694.94;5036785;27;97313;-53
2023/09/22 02:59:53;;;;;;;1.13;0.80;;;;;;;19.43;63.32;99680.97;5036420;27;97573;-53
2023/09/22 03:02:19;;;;;;;1.30;1.17;;;;;;;19.43;63.31;99683.78;5038954;27;97341;-53
2023/09/22 03:04:45;;;;;;;1.07;0.97;;;;;;;19.42;63.27;99682.28;5033352;27;97684;-53
2023/09/22 03:07:10;;;;;;;1.87;0.90;;;;;;;19.40;63.05;99696.81;5034786;27;97302;-53
2023/09/22 03:09:36;;;;;;;1.20;1.00;;;;;;;19.38;63.25;99699.44;5037018;27;99385;-53
2023/09/22 03:12:02;;;;;;;1.50;1.03;;;;;;;19.37;63.15;99709.13;5036424;27;97341;-53
2023/09/22 03:14:27;;;;;;;1.13;1.03;;;;;;;19.37;63.28;99703.53;5034566;27;97594;-53
2023/09/22 03:16:53;;;;;;;1.47;1.20;;;;;;;19.35;63.12;99692.22;5036141;27;96907;-53
2023/09/22 03:19:19;;;;;;;1.20;1.10;;;;;;;19.34;63.08;99687.97;5036420;27;97008;-53
2023/09/22 03:21:44;;;;;;;0.90;0.90;;;;;;;19.32;63.22;99685.00;5034782;27;97384;-53
2023/09/22 03:24:10;;;;;;;1.30;1.00;;;;;;;19.29;63.26;99685.41;5035170;27;102702;-53
2023/09/22 03:26:35;;;;;;;1.23;1.13;;;;;;;19.30;63.29;99695.25;5033211;27;96785;-53
2023/09/22 03:29:01;;;;;;;1.13;0.83;;;;;;;19.30;63.53;99690.41;5035835;27;102026;-53
2023/09/22 03:31:26;;;;;;;1.53;1.10;;;;;;;19.31;63.29;99671.59;5032371;27;96952;-53
2023/09/22 03:33:51;;;;;;;2.60;1.00;;;;;;;19.25;63.22;99665.56;5035159;27;97058;-53
2023/09/22 03:36:20;;;;;;;1.10;0.93;;;;;;;19.23;63.38;99666.13;5033812;27;96726;-53
2023/09/22 03:38:47;;;;;;;1.00;1.00;;;;;;;19.23;63.22;99660.56;5034124;27;97004;-53
2023/09/22 03:41:17;;;;;;;0.90;0.87;;;;;;;19.19;62.97;99657.47;5036416;27;97322;-53
2023/09/22 03:43:45;;;;;;;1.27;0.93;;;;;;;19.17;63.47;99657.31;5036215;27;98505;-53
2023/09/22 03:46:11;;;;;;;2.03;0.93;;;;;;;19.17;63.25;99673.28;5040343;27;98207;-53
2023/09/22 03:48:37;;;;;;;1.03;0.90;;;;;;;19.17;63.40;99678.84;5036127;27;96881;-53
2023/09/22 03:51:03;;;;;;;1.27;0.93;;;;;;;19.18;63.26;99686.66;5037309;27;96934;-53
2023/09/22 03:53:28;;;;;;;0.80;0.80;;;;;;;19.18;63.49;99681.06;5034915;27;97131;-53
2023/09/22 03:55:53;;;;;;;1.33;1.20;;;;;;;19.18;63.37;99666.38;5036307;27;101355;-53
2023/09/22 03:58:20;;;;;;;1.30;1.00;;;;;;;19.17;63.44;99665.66;5033112;27;96877;-53
2023/09/22 04:00:45;;;;;;;1.00;0.90;;;;;;;19.17;63.33;99667.72;5037623;27;96834;-53
2023/09/22 04:03:11;;;;;;;3.77;1.00;;;;;;;19.15;63.33;99659.94;5035282;27;97423;-53
2023/09/22 04:05:38;;;;;;;1.03;0.93;;;;;;;19.14;63.33;99658.44;5036075;27;97132;-53
2023/09/22 04:08:04;;;;;;;1.00;0.90;;;;;;;19.14;63.51;99674.44;5031914;27;96851;-53
2023/09/22 04:10:29;;;;;;;1.57;1.13;;;;;;;19.14;63.63;99680.75;5034130;27;97206;-53
2023/09/22 04:12:54;;;;;;;1.67;0.90;;;;;;;19.14;63.38;99675.16;5034687;27;107655;-53
2023/09/22 04:15:22;;;;;;;1.60;0.90;;;;;;;19.14;63.42;99672.38;5033078;27;97784;-53
2023/09/22 04:17:48;;;;;;;1.03;0.97;;;;;;;19.14;63.49;99675.16;5038408;27;96910;-53
2023/09/22 04:20:17;;;;;;;2.10;0.83;;;;;;;19.16;63.47;99688.53;5032590;27;98336;-53
2023/09/22 04:22:43;;;;;;;1.87;1.50;;;;;;;19.15;63.42;99698.22;5034473;27;96912;-53
2023/09/22 04:25:11;;;;;;;1.03;1.00;;;;;;;19.13;63.41;99709.94;5035400;27;97028;-53
2023/09/22 04:27:44;;;;;;;1.00;0.90;;;;;;;19.12;63.33;99694.53;5034318;27;97143;-53
2023/09/22 04:30:16;;;;;;;1.63;0.93;;;;;;;19.10;63.36;99680.44;5035910;27;97404;-53
2023/09/22 04:32:43;;;;;;;1.00;0.63;;;;;;;19.11;63.50;99683.97;5035059;27;97345;-53
2023/09/22 04:35:09;;;;;;;2.40;0.80;;;;;;;19.09;63.30;99667.78;5037237;27;96980;-53
2023/09/22 04:37:34;;;;;;;0.97;0.70;;;;;;;19.11;63.24;99684.66;5034704;27;97209;-53
2023/09/22 04:40:00;;;;;;;0.70;0.67;;;;;;;19.08;63.03;99680.25;5034922;27;97425;-53
2023/09/22 04:42:25;;;;;;;0.70;0.63;;;;;;;19.08;63.11;99679.53;5033748;27;111605;-53
2023/09/22 04:44:51;;;;;;;0.73;0.60;;;;;;;19.05;62.93;99678.63;5041245;27;98627;-54
2023/09/22 04:47:17;;;;;;;1.30;1.00;;;;;;;19.04;63.05;99677.16;5034414;27;97012;-53
2023/09/22 04:49:43;;;;;;;0.83;0.70;;;;;;;19.01;63.11;99667.16;5034518;27;96961;-53
2023/09/22 04:52:08;;;;;;;1.10;0.90;;;;;;;18.98;63.13;99676.63;5033185;27;97220;-53
2023/09/22 04:54:34;;;;;;;0.70;0.63;;;;;;;18.97;63.08;99682.81;5033466;27;97137;-53
2023/09/22 04:57:00;;;;;;;0.80;0.70;;;;;;;18.95;62.98;99696.56;5036407;27;97288;-53
2023/09/22 04:59:25;;;;;;;0.80;0.80;;;;;;;18.93;62.96;99704.78;5032688;27;97404;-53
2023/09/22 05:01:51;;;;;;;0.70;0.63;;;;;;;18.90;62.93;99712.22;5033908;27;97385;-53
2023/09/22 05:04:16;;;;;;;1.00;0.80;;;;;;;18.87;63.01;99721.72;5033673;27;96674;-53
2023/09/22 05:06:45;;;;;;;0.80;0.70;;;;;;;18.85;62.95;99720.84;5035445;27;98119;-53
2023/09/22 05:09:11;;;;;;;2.03;0.87;;;;;;;18.81;63.00;99732.38;5033760;27;96821;-53
2023/09/22 05:11:37;;;;;;;0.83;0.83;;;;;;;18.81;63.24;99735.16;5032636;27;97059;-53
2023/09/22 05:14:03;;;;;;;1.10;1.00;;;;;;;18.79;62.99;99729.44;5034039;27;96961;-54
2023/09/22 05:16:29;;;;;;;0.97;0.77;;;;;;;18.78;62.92;99725.19;5035646;27;96706;-53
2023/09/22 05:18:54;;;;;;;0.90;0.90;;;;;;;18.77;62.99;99714.59;5033548;27;96957;-54
2023/09/22 05:21:19;;;;;;;1.00;1.00;;;;;;;18.74;62.79;99716.47;5030645;27;97330;-53
2023/09/22 05:23:45;;;;;;;0.90;0.80;;;;;;;18.74;63.00;99710.88;5035446;27;96676;-54
2023/09/22 05:26:11;;;;;;;1.00;0.90;;;;;;;18.70;63.06;99713.34;5033980;27;96734;-54
2023/09/22 05:28:36;;;;;;;1.40;1.10;;;;;;;18.68;63.03;99724.34;5036107;27;97213;-53
2023/09/22 05:31:07;;;;;;;2.83;0.90;;;;;;;18.65;62.95;99719.91;5034204;27;97184;-53
2023/09/22 05:33:33;;;;;;;1.33;1.00;;;;;;;18.63;63.15;99723.25;5035924;27;98479;-54
2023/09/22 05:35:59;;;;;;;0.90;0.80;;;;;;;18.64;62.95;99732.34;5035456;27;97486;-53
2023/09/22 05:38:24;;;;;;;0.90;0.77;;;;;;;18.63;63.30;99734.41;5036815;27;97311;-53
2023/09/22 05:40:49;;;;;;;0.77;0.77;;;;;;;18.67;63.06;99742.38;5032520;27;97312;-53
2023/09/22 05:43:15;;;;;;;1.43;1.33;;;;;;;18.70;63.03;99739.16;5034349;27;96590;-54
2023/09/22 05:45:43;;;;;;;1.57;1.10;;;;;;;18.75;63.00;99723.53;5030948;27;96971;-53
2023/09/22 05:48:09;;;;;;;3.80;1.43;;;;;;;18.78;63.07;99719.59;5033713;27;97211;-53
2023/09/22 05:50:38;;;;;;;2.20;1.63;;;;;;;18.82;63.00;99736.66;5034683;27;97324;-53
2023/09/22 05:53:08;;;;;;;1.73;1.63;;;;;;;18.81;62.90;99760.25;5037268;27;97045;-53
2023/09/22 05:55:33;;;;;;;2.20;2.10;;;;;;;18.83;62.83;99760.41;5035303;27;96750;-53
2023/09/22 05:57:59;;;;;;;1.90;1.80;;;;;;;18.84;62.96;99773.06;5036611;27;97350;-53
2023/09/22 06:00:30;;;;;;;2.50;2.30;;;;;;;18.82;62.96;99777.72;5037657;27;100425;-53
2023/09/22 06:02:56;;;;;;;2.00;1.90;;;;;;;18.83;62.76;99782.72;5034068;27;97071;-53
2023/09/22 06:05:22;;;;;;;2.27;2.10;;;;;;;18.86;62.70;99795.50;5035119;27;97410;-54
2023/09/22 06:07:55;;;;;;;2.30;2.10;;;;;;;18.88;62.77;99801.25;5033459;27;96908;-54
2023/09/22 06:10:21;;;;;;;2.27;2.17;;;;;;;18.92;62.64;99818.31;5035162;27;98351;-53
2023/09/22 06:12:46;;;;;;;1.93;1.83;;;;;;;18.95;62.73;99819.22;5034205;27;101447;-53
2023/09/22 06:15:16;;;;;;;5.30;2.43;;;;;;;18.97;62.70;99817.34;5034839;27;97684;-53
2023/09/22 06:17:41;;;;;;;2.00;1.90;;;;;;;18.99;62.53;99825.88;5032670;27;97097;-53
2023/09/22 06:20:15;;;;;;;1.90;1.80;;;;;;;18.99;62.49;99827.91;5036276;27;97115;-53
2023/09/22 06:22:44;;;;;;;1.70;1.57;;;;;;;19.01;62.39;99830.88;5024340;27;97484;-53
2023/09/22 06:25:10;;;;;;;2.43;2.23;;;;;;;19.02;62.50;99840.72;5027478;27;97246;-54
2023/09/22 06:27:36;;;;;;;2.07;1.97;;;;;;;19.04;62.47;99852.03;5028601;27;97108;-53
2023/09/22 06:30:03;;;;;;;1.93;1.83;;;;;;;19.06;62.19;99843.84;5030440;27;98757;-53
2023/09/22 06:32:28;;;;;;;2.00;1.73;;;;;;;19.08;62.30;99855.91;5030688;27;99429;-54
2023/09/22 06:34:55;;;;;;;2.07;1.97;;;;;;;19.06;62.31;99852.22;5023992;27;103522;-54
2023/09/22 06:37:21;;;;;;;4.50;2.17;;;;;;;19.07;62.08;99850.88;5025993;27;97156;-53
2023/09/22 06:39:46;;;;;;;1.97;1.87;;;;;;;19.07;62.01;99845.31;5033069;27;96717;-53
2023/09/22 06:42:12;;;;;;;2.40;2.30;;;;;;;19.06;61.93;99841.06;5034586;27;97398;-54
2023/09/22 06:44:38;;;;;;;2.27;2.13;;;;;;;19.07;61.94;99837.69;5034932;27;97024;-53
2023/09/22 06:47:04;;;;;;;3.20;2.43;;;;;;;19.06;61.88;99844.59;5036466;27;103652;-53
2023/09/22 06:49:33;;;;;;;3.13;2.43;;;;;;;19.10;62.03;99831.00;5033529;27;97776;-54
2023/09/22 06:51:59;;;;;;;2.23;2.03;;;;;;;19.09;61.79;99840.66;5034430;27;97352;-53
2023/09/22 06:54:26;;;;;;;2.53;2.20;;;;;;;19.09;61.70;99835.06;5034819;27;97057;-54
2023/09/22 06:56:52;;;;;;;2.83;2.40;;;;;;;19.10;61.94;99836.56;5035465;27;96711;-53
2023/09/22 06:59:17;;;;;;;2.20;2.00;;;;;;;19.13;61.69;99840.97;5036140;27;97646;-53
2023/09/22 07:01:43;;;;;;;2.47;2.27;;;;;;;19.14;61.50;99852.88;5035447;27;97059;-53
2023/09/22 07:04:10;;;;;;;1.93;1.83;;;;;;;19.18;61.28;99861.56;5035499;27;97040;-53
2023/09/22 07:06:36;;;;;;;1.80;1.70;;;;;;;19.23;61.46;99868.97;5033531;27;97292;-53
2023/09/22 07:09:02;;;;;;;2.50;2.30;;;;;;;19.24;61.16;99868.41;5024061;27;96915;-54
2023/09/22 07:11:28;;;;;;;5.50;2.27;;;;;;;19.29;61.27;99864.63;5032828;27;97198;-54
2023/09/22 07:13:54;;;;;;;2.57;2.37;;;;;;;19.35;61.34;99864.44;5037644;27;97368;-53
2023/09/22 07:16:20;;;;;;;1.97;1.80;;;;;;;19.30;61.05;99860.56;5035773;27;97267;-54
2023/09/22 07:18:46;;;;;;;2.23;1.70;;;;;;;19.33;60.89;99870.53;5034965;27;96782;-54
2023/09/22 07:21:11;;;;;;;3.17;2.47;;;;;;;19.32;60.86;99873.91;5035492;27;100556;-53
2023/09/22 07:23:37;;;;;;;1.87;1.77;;;;;;;19.32;60.82;99877.44;5033752;27;97148;-53
2023/09/22 07:26:04;;;;;;;2.17;2.00;;;;;;;19.32;60.80;99883.03;5033841;27;97390;-54
2023/09/22 07:28:31;;;;;;;2.83;2.57;;;;;;;19.33;60.60;99884.50;5033366;27;97868;-53
2023/09/22 07:30:57;;;;;;;4.03;2.13;;;;;;;19.33;60.71;99880.97;5032312;27;96882;-53
2023/09/22 07:33:32;;;;;;;1.80;1.70;;;;;;;19.34;60.42;99896.41;5036267;27;97040;-54
2023/09/22 07:35:59;;;;;;;2.60;2.00;;;;;;;19.36;60.44;99897.34;5036878;27;97547;-53
2023/09/22 07:38:25;;;;;;;4.20;1.70;;;;;;;19.37;60.54;99912.75;5035260;27;97782;-54
2023/09/22 07:40:51;;;;;;;2.37;2.17;;;;;;;19.37;60.37;99915.53;5032946;27;96758;-54
2023/09/22 07:43:16;;;;;;;2.37;2.27;;;;;;;19.38;60.30;99908.66;5035613;27;97386;-54
2023/09/22 07:45:41;;;;;;;4.20;2.27;;;;;;;19.38;60.24;99924.66;5033531;27;96995;-53
2023/09/22 07:48:07;;;;;;;4.20;1.83;;;;;;;19.35;60.07;99923.75;5033028;27;98724;-54
2023/09/22 07:50:35;;;;;;;1.80;1.70;;;;;;;19.40;60.09;99925.56;5033164;27;97260;-54
2023/09/22 07:53:01;;;;;;;2.40;2.20;;;;;;;19.42;60.03;99939.69;5036888;27;97049;-53
2023/09/22 07:55:26;;;;;;;2.70;2.33;;;;;;;19.46;60.05;99932.97;5035710;27;97169;-53
2023/09/22 07:57:51;;;;;;;2.53;2.30;;;;;;;19.46;59.79;99919.03;5034819;27;97264;-54
2023/09/22 08:00:18;;;;;;;2.37;1.87;;;;;;;19.52;59.90;99920.25;5038839;27;107599;-54
2023/09/22 08:02:45;;;;;;;2.57;2.37;;;;;;;19.60;59.96;99911.78;5035024;27;97301;-54
2023/09/22 08:05:15;;;;;;;1.70;1.60;;;;;;;19.66;59.73;99912.31;5033818;27;97180;-54
2023/09/22 08:07:42;;;;;;;1.70;1.60;;;;;;;19.75;59.64;99917.97;5033374;27;96938;-54
2023/09/22 08:10:11;;;;;;;2.77;2.00;;;;;;;19.82;59.58;99908.03;5034519;27;98600;-53
2023/09/22 08:12:43;;;;;;;2.83;2.63;;;;;;;19.84;59.27;99916.56;5034960;27;96838;-55
2023/09/22 08:15:09;;;;;;;5.00;1.90;;;;;;;19.96;59.56;99907.13;5032465;27;97126;-53
2023/09/22 08:17:35;;;;;;;2.10;2.00;;;;;;;20.08;59.21;99904.56;5033716;27;97511;-54
2023/09/22 08:20:00;;;;;;;2.10;1.90;;;;;;;20.16;59.34;99930.34;5033680;27;97505;-54
2023/09/22 08:22:26;;;;;;;4.20;2.43;;;;;;;20.18;58.89;99941.72;5033442;27;99992;-54
2023/09/22 08:24:52;;;;;;;2.23;2.00;;;;;;;20.19;58.88;99941.13;5036761;27;97233;-54
2023/09/22 08:27:18;;;;;;;2.27;2.17;;;;;;;20.28;58.95;99948.13;5032260;27;97625;-54
2023/09/22 08:29:43;;;;;;;2.40;2.13;;;;;;;20.33;58.79;99960.38;5035712;27;96793;-54
2023/09/22 08:32:09;;;;;;;2.83;2.63;;;;;;;20.39;58.54;99974.81;5033998;27;97258;-54
2023/09/22 08:34:35;;;;;;;2.20;2.00;;;;;;;20.41;58.48;99992.50;5035056;27;97131;-54
2023/09/22 08:37:00;;;;;;;2.40;1.80;;;;;;;20.44;58.58;99987.81;5030991;27;96846;-54
2023/09/22 08:39:26;;;;;;;2.63;1.93;;;;;;;20.46;58.40;99993.56;5033742;27;96890;-54
2023/09/22 08:41:52;;;;;;;2.37;2.13;;;;;;;20.41;58.21;100003.66;5037299;27;97413;-54
2023/09/22 08:44:19;;;;;;;2.77;2.07;;;;;;;20.37;58.08;99999.81;5041411;27;97323;-54
2023/09/22 08:46:45;;;;;;;1.50;1.40;;;;;;;20.34;58.00;99998.91;5036088;27;97252;-54
2023/09/22 08:49:10;;;;;;;1.30;1.20;;;;;;;20.34;58.05;99984.94;5034866;27;97250;-54
2023/09/22 08:51:36;;;;;;;2.17;1.87;;;;;;;20.32;57.85;99979.19;5034922;27;97642;-54
2023/09/22 08:54:01;;;;;;;1.27;1.17;;;;;;;20.34;57.79;99968.16;5035185;27;96979;-54
2023/09/22 08:56:28;;;;;;;1.67;1.37;;;;;;;20.33;57.71;99971.53;5034920;27;97231;-54
2023/09/22 08:58:53;;;;;;;1.70;1.60;;;;;;;20.35;57.79;99980.09;5031591;27;97194;-53
2023/09/22 09:01:19;;;;;;;1.37;1.27;;;;;;;20.38;57.66;99970.56;5036144;27;97398;-54
2023/09/22 09:03:45;;;;;;;1.03;0.93;;;;;;;20.46;57.49;99979.59;5028279;27;97939;-54
2023/09/22 09:06:14;;;;;;;1.20;1.03;;;;;;;20.47;57.45;99970.63;5033910;27;97312;-54
2023/09/22 09:08:39;;;;;;;2.30;0.93;;;;;;;20.49;57.35;99972.81;5031500;27;97141;-55
2023/09/22 09:11:10;;;;;;;1.67;1.50;;;;;;;20.52;57.10;99975.22;5034352;27;97217;-54
2023/09/22 09:13:37;;;;;;;2.03;1.40;;;;;;;20.49;57.09;99965.19;5032409;27;97571;-54
2023/09/22 09:16:06;;;;;;;1.70;0.90;;;;;;;20.49;56.78;99972.81;5031963;27;96740;-54
2023/09/22 09:18:32;;;;;;;1.53;0.97;;;;;;;20.50;56.82;99969.47;5034530;27;97214;-54
2023/09/22 09:21:14;;;;;;;2.13;1.10;;;;;;;20.59;56.34;99970.84;5033550;27;96704;-54
2023/09/22 09:23:55;;;;;;;1.87;1.40;;;;;;;20.65;55.95;99966.47;5036513;27;97264;-53
2023/09/22 09:26:24;;;;;;;2.20;1.10;;;;;;;20.74;56.17;99954.63;5035917;27;97421;-54
2023/09/22 09:28:50;;;;;;;1.03;0.93;;;;;;;20.74;55.83;99960.22;5033283;27;97535;-54
2023/09/22 09:31:18;;;;;;;1.73;1.03;;;;;;;20.81;55.99;99958.63;5034700;27;96830;-54
2023/09/22 09:33:51;;;;;;;1.03;0.70;;;;;;;20.98;55.31;99960.59;5034698;27;97256;-54
2023/09/22 09:36:17;;;;;;;1.80;1.20;;;;;;;21.03;55.40;99965.97;5039224;27;96937;-54
2023/09/22 09:38:42;;;;;;;1.40;0.77;;;;;;;21.08;55.32;99969.84;5033240;27;97138;-54
2023/09/22 09:41:10;;;;;;;1.30;0.90;;;;;;;21.09;55.01;99977.63;5032372;27;97009;-54
2023/09/22 09:43:37;;;;;;;1.37;0.80;;;;;;;21.09;55.13;99990.88;5034478;27;97943;-54
2023/09/22 09:46:02;;;;;;;2.73;0.70;;;;;;;21.00;54.96;99992.28;5034257;27;97419;-54
2023/09/22 09:48:30;;;;;;;1.40;1.00;;;;;;;20.92;54.96;99986.06;5032685;27;97125;-54
2023/09/22 09:51:00;;;;;;;1.23;0.90;;;;;;;20.92;54.95;99983.25;5035535;27;97182;-53
2023/09/22 09:53:35;;;;;;;2.60;0.63;;;;;;;20.90;54.55;99983.09;5032738;27;96815;-54
2023/09/22 09:56:03;;;;;;;1.47;0.70;;;;;;;20.94;55.15;99972.22;5031063;27;98059;-54
2023/09/22 09:58:32;;;;;;;1.43;0.70;;;;;;;21.07;54.87;99971.13;5034698;27;97278;-54
2023/09/22 10:00:59;;;;;;;3.10;0.90;;;;;;;21.17;54.75;99967.06;5035822;27;97063;-54
2023/09/22 10:03:26;;;;;;;1.67;0.63;;;;;;;21.31;54.67;99965.34;5036104;27;97288;-54
2023/09/22 10:05:52;;;;;;;2.30;0.90;;;;;;;21.48;54.51;99970.13;5033531;27;97133;-54
2023/09/22 10:08:19;;;;;;;1.53;0.77;;;;;;;21.61;54.24;99964.84;5033011;27;97215;-54
2023/09/22 10:10:47;;;;;;;0.80;0.80;;;;;;;21.75;54.24;99962.38;5032619;27;98007;-54
2023/09/22 10:13:13;;;;;;;0.70;0.70;;;;;;;21.96;54.11;99970.22;5033339;27;96861;-54
2023/09/22 10:16:00;;;;;;;1.93;0.80;;;;;;;22.09;52.70;99970.53;5038867;27;97249;-54
2023/09/22 10:18:59;;;;;;;1.50;0.90;;;;;;;22.10;52.69;99982.50;5036292;27;96729;-53
2023/09/22 10:21:30;;;;;;;1.20;0.60;;;;;;;22.11;52.72;99987.50;5034253;27;96891;-54
2023/09/22 10:24:15;;;;;;;1.23;0.60;;;;;;;21.99;51.80;99975.41;5037827;27;96847;-54
2023/09/22 10:26:56;;;;;;;0.80;0.50;;;;;;;21.82;52.06;99981.09;5034866;27;96756;-55
2023/09/22 10:29:33;;;;;;;1.50;0.80;;;;;;;21.83;52.46;99988.19;5038562;27;96824;-55
2023/09/22 10:32:17;;;;;;;0.70;0.53;;;;;;;21.87;52.33;99994.09;5033887;27;97287;-55
2023/09/22 10:34:47;;;;;;;0.77;0.50;;;;;;;21.90;52.48;100001.34;5039480;27;97310;-54
2023/09/22 10:37:14;;;;;;;1.23;0.70;;;;;;;21.93;53.18;100005.03;5033374;27;97462;-54
2023/09/22 10:39:52;;;;;;;1.20;0.60;;;;;;;22.00;52.26;99992.94;5036174;27;97239;-54
2023/09/22 10:42:19;;;;;;;1.10;0.70;;;;;;;21.97;52.71;99978.06;5038797;27;97280;-54
2023/09/22 10:44:59;;;;;;;1.97;0.70;;;;;;;21.97;52.09;99994.88;5035702;27;96947;-54
2023/09/22 10:47:49;;;;;;;1.70;0.60;;;;;;;21.87;51.49;99979.34;5036830;27;97176;-55
2023/09/22 10:50:21;;;;;;;1.00;0.57;;;;;;;21.78;52.48;99997.59;5031059;27;97345;-55
2023/09/22 10:52:51;;;;;;;0.80;0.47;;;;;;;21.77;52.27;99998.19;5035550;27;97123;-55
2023/09/22 10:55:27;;;;;;;1.13;0.60;;;;;;;21.75;51.78;100007.19;5034100;27;97263;-54
2023/09/22 10:57:56;;;;;;;1.30;0.83;;;;;;;21.74;52.29;100011.28;5036358;27;97208;-54
2023/09/22 11:00:22;;;;;;;1.40;0.50;;;;;;;21.76;52.44;100016.28;5038027;27;97154;-54
2023/09/22 11:02:48;;;;;;;0.70;0.60;;;;;;;21.79;52.51;100013.06;5036812;27;96692;-54
2023/09/22 11:05:17;;;;;;;0.90;0.60;;;;;;;21.85;52.08;100010.00;5037566;27;97205;-54
2023/09/22 11:07:43;;;;;;;2.33;0.70;;;;;;;21.89;52.11;100010.31;5036328;27;97694;-55
2023/09/22 11:10:17;;;;;;;0.80;0.53;;;;;;;21.92;51.92;100004.28;5038610;27;97345;-54
2023/09/22 11:12:46;;;;;;;2.47;0.70;;;;;;;21.96;51.66;100004.59;5037682;27;97270;-54
2023/09/22 11:15:13;;;;;;;1.07;0.50;;;;;;;22.05;51.84;100011.53;5039070;27;97432;-54
2023/09/22 11:17:41;;;;;;;1.03;0.50;;;;;;;22.17;51.72;100007.53;5038189;27;97588;-53
2023/09/22 11:20:15;;;;;;;0.93;0.63;;;;;;;22.36;51.46;100010.38;5036012;27;97240;-54
2023/09/22 11:22:42;;;;;;;0.60;0.40;;;;;;;22.52;51.10;100012.88;5035314;27;97412;-54
2023/09/22 11:25:11;;;;;;;0.93;0.80;;;;;;;22.63;51.03;100017.91;5035449;27;97232;-54
2023/09/22 11:27:44;;;;;;;1.23;0.60;;;;;;;22.71;50.27;100021.28;5036319;27;97391;-54
2023/09/22 11:30:15;;;;;;;1.47;0.50;;;;;;;22.64;50.54;100024.97;5036919;27;96703;-54